sensor_id;sensor_type;location;lat;lon;timestamp;P1;durP1;ratioP1;P2;durP2;ratioP2
31336;SDS011;22846;42.654;23.314;2023-08-07T00:01:19;1.90;;;1.20;;
31336;SDS011;22846;42.654;23.314;2023-08-07T00:03:44;4.15;;;1.40;;
31336;SDS011;22846;42.654;23.314;2023-08-07T00:06:10;1.30;;;1.10;;
31336;SDS011;22846;42.654;23.314;2023-08-07T00:08:35;1.20;;;1.10;;
31336;SDS011;22846;42.654;23.314;2023-08-07T00:11:06;1.35;;;1.20;;
31336;SDS011;22846;42.654;23.314;2023-08-07T00:13:33;1.40;;;1.25;;
31336;SDS011;22846;42.654;23.314;2023-08-07T00:15:58;1.40;;;1.30;;
31336;SDS011;22846;42.654;23.314;2023-08-07T00:18:24;1.20;;;1.10;;
31336;SDS011;22846;42.654;23.314;2023-08-07T00:20:49;1.45;;;1.35;;
31336;SDS011;22846;42.654;23.314;2023-08-07T00:23:14;2.33;;;1.40;;
31336;SDS011;22846;42.654;23.314;2023-08-07T00:25:40;1.60;;;1.30;;
31336;SDS011;22846;42.654;23.314;2023-08-07T00:28:05;3.47;;;1.38;;
31336;SDS011;22846;42.654;23.314;2023-08-07T00:30:30;1.40;;;1.30;;
31336;SDS011;22846;42.654;23.314;2023-08-07T00:32:56;2.00;;;1.50;;
31336;SDS011;22846;42.654;23.314;2023-08-07T00:35:21;1.55;;;1.33;;
31336;SDS011;22846;42.654;23.314;2023-08-07T00:37:47;1.30;;;1.20;;
31336;SDS011;22846;42.654;23.314;2023-08-07T00:40:12;1.20;;;1.10;;
31336;SDS011;22846;42.654;23.314;2023-08-07T00:42:37;2.75;;;1.42;;
31336;SDS011;22846;42.654;23.314;2023-08-07T00:45:03;1.50;;;1.40;;
31336;SDS011;22846;42.654;23.314;2023-08-07T00:47:30;1.77;;;1.33;;
31336;SDS011;22846;42.654;23.314;2023-08-07T00:49:56;2.22;;;1.67;;
31336;SDS011;22846;42.654;23.314;2023-08-07T00:52:22;2.30;;;1.50;;
31336;SDS011;22846;42.654;23.314;2023-08-07T00:54:48;3.50;;;1.55;;
31336;SDS011;22846;42.654;23.314;2023-08-07T00:57:13;1.40;;;1.30;;
31336;SDS011;22846;42.654;23.314;2023-08-07T00:59:40;2.13;;;1.35;;
31336;SDS011;22846;42.654;23.314;2023-08-07T01:02:06;1.50;;;1.40;;
31336;SDS011;22846;42.654;23.314;2023-08-07T01:04:32;1.60;;;1.30;;
31336;SDS011;22846;42.654;23.314;2023-08-07T01:06:57;1.90;;;1.42;;
31336;SDS011;22846;42.654;23.314;2023-08-07T01:09:23;1.85;;;1.60;;
31336;SDS011;22846;42.654;23.314;2023-08-07T01:12:02;1.65;;;1.55;;
31336;SDS011;22846;42.654;23.314;2023-08-07T01:14:36;2.50;;;1.63;;
31336;SDS011;22846;42.654;23.314;2023-08-07T01:17:15;1.45;;;1.35;;
31336;SDS011;22846;42.654;23.314;2023-08-07T01:19:42;1.70;;;1.60;;
31336;SDS011;22846;42.654;23.314;2023-08-07T01:22:08;1.80;;;1.60;;
31336;SDS011;22846;42.654;23.314;2023-08-07T01:24:38;1.70;;;1.60;;
31336;SDS011;22846;42.654;23.314;2023-08-07T01:30:29;1.90;;;1.50;;
31336;SDS011;22846;42.654;23.314;2023-08-07T01:32:40;1.50;;;1.40;;
31336;SDS011;22846;42.654;23.314;2023-08-07T01:35:12;2.15;;;1.70;;
31336;SDS011;22846;42.654;23.314;2023-08-07T01:37:41;1.73;;;1.63;;
31336;SDS011;22846;42.654;23.314;2023-08-07T01:40:07;1.73;;;1.60;;
31336;SDS011;22846;42.654;23.314;2023-08-07T01:42:35;3.13;;;1.60;;
31336;SDS011;22846;42.654;23.314;2023-08-07T01:45:01;2.38;;;1.80;;
31336;SDS011;22846;42.654;23.314;2023-08-07T01:47:27;1.80;;;1.70;;
31336;SDS011;22846;42.654;23.314;2023-08-07T01:49:52;3.75;;;1.92;;
31336;SDS011;22846;42.654;23.314;2023-08-07T01:52:18;2.15;;;1.80;;
31336;SDS011;22846;42.654;23.314;2023-08-07T01:54:45;1.80;;;1.70;;
31336;SDS011;22846;42.654;23.314;2023-08-07T01:57:10;2.35;;;1.90;;
31336;SDS011;22846;42.654;23.314;2023-08-07T01:59:35;6.80;;;1.90;;
31336;SDS011;22846;42.654;23.314;2023-08-07T02:02:01;2.40;;;1.52;;
31336;SDS011;22846;42.654;23.314;2023-08-07T02:04:26;2.97;;;1.85;;
31336;SDS011;22846;42.654;23.314;2023-08-07T02:06:51;1.70;;;1.60;;
31336;SDS011;22846;42.654;23.314;2023-08-07T02:09:17;2.10;;;1.60;;
31336;SDS011;22846;42.654;23.314;2023-08-07T02:11:42;1.85;;;1.58;;
31336;SDS011;22846;42.654;23.314;2023-08-07T02:14:07;2.55;;;1.70;;
31336;SDS011;22846;42.654;23.314;2023-08-07T02:16:33;1.90;;;1.80;;
31336;SDS011;22846;42.654;23.314;2023-08-07T02:18:58;2.15;;;1.92;;
31336;SDS011;22846;42.654;23.314;2023-08-07T02:21:24;1.77;;;1.67;;
31336;SDS011;22846;42.654;23.314;2023-08-07T02:23:49;2.88;;;1.83;;
31336;SDS011;22846;42.654;23.314;2023-08-07T02:26:14;4.47;;;1.65;;
31336;SDS011;22846;42.654;23.314;2023-08-07T02:28:40;10.00;;;2.10;;
31336;SDS011;22846;42.654;23.314;2023-08-07T02:31:05;2.10;;;1.90;;
31336;SDS011;22846;42.654;23.314;2023-08-07T02:33:31;2.13;;;1.90;;
31336;SDS011;22846;42.654;23.314;2023-08-07T02:35:57;3.75;;;1.80;;
31336;SDS011;22846;42.654;23.314;2023-08-07T02:38:22;2.00;;;1.80;;
31336;SDS011;22846;42.654;23.314;2023-08-07T02:40:48;2.35;;;2.15;;
31336;SDS011;22846;42.654;23.314;2023-08-07T02:43:13;1.83;;;1.73;;
31336;SDS011;22846;42.654;23.314;2023-08-07T02:45:39;1.95;;;1.83;;
31336;SDS011;22846;42.654;23.314;2023-08-07T02:48:04;2.17;;;1.60;;
31336;SDS011;22846;42.654;23.314;2023-08-07T02:50:30;2.00;;;1.80;;
31336;SDS011;22846;42.654;23.314;2023-08-07T02:52:57;2.83;;;1.80;;
31336;SDS011;22846;42.654;23.314;2023-08-07T02:55:23;2.47;;;1.90;;
31336;SDS011;22846;42.654;23.314;2023-08-07T02:57:49;2.40;;;1.88;;
31336;SDS011;22846;42.654;23.314;2023-08-07T03:00:14;3.70;;;1.90;;
31336;SDS011;22846;42.654;23.314;2023-08-07T03:02:39;1.73;;;1.63;;
31336;SDS011;22846;42.654;23.314;2023-08-07T03:05:05;2.20;;;2.00;;
31336;SDS011;22846;42.654;23.314;2023-08-07T03:07:30;3.05;;;1.90;;
31336;SDS011;22846;42.654;23.314;2023-08-07T03:09:56;2.03;;;1.60;;
31336;SDS011;22846;42.654;23.314;2023-08-07T03:12:21;2.47;;;1.85;;
31336;SDS011;22846;42.654;23.314;2023-08-07T03:14:47;2.08;;;1.88;;
31336;SDS011;22846;42.654;23.314;2023-08-07T03:17:12;1.98;;;1.75;;
31336;SDS011;22846;42.654;23.314;2023-08-07T03:19:39;7.43;;;1.88;;
31336;SDS011;22846;42.654;23.314;2023-08-07T03:22:07;3.10;;;2.30;;
31336;SDS011;22846;42.654;23.314;2023-08-07T03:24:32;2.05;;;1.85;;
31336;SDS011;22846;42.654;23.314;2023-08-07T03:26:58;1.95;;;1.85;;
31336;SDS011;22846;42.654;23.314;2023-08-07T03:29:23;2.10;;;1.90;;
31336;SDS011;22846;42.654;23.314;2023-08-07T03:31:48;2.45;;;2.03;;
31336;SDS011;22846;42.654;23.314;2023-08-07T03:34:14;2.33;;;2.00;;
31336;SDS011;22846;42.654;23.314;2023-08-07T03:36:39;2.28;;;2.05;;
31336;SDS011;22846;42.654;23.314;2023-08-07T03:39:04;3.33;;;2.40;;
31336;SDS011;22846;42.654;23.314;2023-08-07T03:41:30;2.30;;;2.05;;
31336;SDS011;22846;42.654;23.314;2023-08-07T03:43:55;3.15;;;2.17;;
31336;SDS011;22846;42.654;23.314;2023-08-07T03:46:21;5.97;;;2.50;;
31336;SDS011;22846;42.654;23.314;2023-08-07T03:48:46;2.40;;;2.20;;
31336;SDS011;22846;42.654;23.314;2023-08-07T03:51:11;3.70;;;2.45;;
31336;SDS011;22846;42.654;23.314;2023-08-07T03:53:37;4.43;;;2.22;;
31336;SDS011;22846;42.654;23.314;2023-08-07T03:56:02;3.67;;;2.42;;
31336;SDS011;22846;42.654;23.314;2023-08-07T03:58:28;4.20;;;2.10;;
31336;SDS011;22846;42.654;23.314;2023-08-07T04:00:54;2.33;;;2.13;;
31336;SDS011;22846;42.654;23.314;2023-08-07T04:03:20;2.88;;;2.53;;
31336;SDS011;22846;42.654;23.314;2023-08-07T04:05:46;3.75;;;2.20;;
31336;SDS011;22846;42.654;23.314;2023-08-07T04:08:11;2.33;;;2.10;;
31336;SDS011;22846;42.654;23.314;2023-08-07T04:10:36;5.00;;;2.20;;
31336;SDS011;22846;42.654;23.314;2023-08-07T04:13:02;2.50;;;2.10;;
31336;SDS011;22846;42.654;23.314;2023-08-07T04:15:28;2.15;;;1.80;;
31336;SDS011;22846;42.654;23.314;2023-08-07T04:17:53;2.10;;;1.95;;
31336;SDS011;22846;42.654;23.314;2023-08-07T04:20:19;2.42;;;2.00;;
31336;SDS011;22846;42.654;23.314;2023-08-07T04:22:45;2.53;;;2.28;;
31336;SDS011;22846;42.654;23.314;2023-08-07T04:25:11;1.90;;;1.70;;
31336;SDS011;22846;42.654;23.314;2023-08-07T04:27:37;3.72;;;1.98;;
31336;SDS011;22846;42.654;23.314;2023-08-07T04:30:03;3.17;;;1.98;;
31336;SDS011;22846;42.654;23.314;2023-08-07T04:32:29;3.75;;;1.90;;
31336;SDS011;22846;42.654;23.314;2023-08-07T04:34:55;2.28;;;2.08;;
31336;SDS011;22846;42.654;23.314;2023-08-07T04:37:20;2.30;;;2.08;;
31336;SDS011;22846;42.654;23.314;2023-08-07T04:39:45;2.30;;;2.10;;
31336;SDS011;22846;42.654;23.314;2023-08-07T04:42:11;3.10;;;2.05;;
31336;SDS011;22846;42.654;23.314;2023-08-07T04:44:36;4.32;;;2.20;;
31336;SDS011;22846;42.654;23.314;2023-08-07T04:47:01;7.07;;;4.35;;
31336;SDS011;22846;42.654;23.314;2023-08-07T04:49:27;7.15;;;4.20;;
31336;SDS011;22846;42.654;23.314;2023-08-07T04:51:52;6.30;;;3.35;;
31336;SDS011;22846;42.654;23.314;2023-08-07T04:54:18;12.23;;;6.28;;
31336;SDS011;22846;42.654;23.314;2023-08-07T04:56:43;9.20;;;6.13;;
31336;SDS011;22846;42.654;23.314;2023-08-07T04:59:09;9.57;;;7.93;;
31336;SDS011;22846;42.654;23.314;2023-08-07T05:01:35;14.77;;;10.52;;
31336;SDS011;22846;42.654;23.314;2023-08-07T05:04:01;9.55;;;7.57;;
31336;SDS011;22846;42.654;23.314;2023-08-07T05:06:27;7.65;;;5.85;;
31336;SDS011;22846;42.654;23.314;2023-08-07T05:08:52;6.40;;;5.13;;
31336;SDS011;22846;42.654;23.314;2023-08-07T05:11:17;4.63;;;3.25;;
31336;SDS011;22846;42.654;23.314;2023-08-07T05:13:45;9.20;;;4.57;;
31336;SDS011;22846;42.654;23.314;2023-08-07T05:16:10;6.18;;;4.90;;
31336;SDS011;22846;42.654;23.314;2023-08-07T05:18:36;5.63;;;3.45;;
31336;SDS011;22846;42.654;23.314;2023-08-07T05:21:01;4.97;;;3.17;;
31336;SDS011;22846;42.654;23.314;2023-08-07T05:23:27;3.10;;;2.45;;
31336;SDS011;22846;42.654;23.314;2023-08-07T05:25:52;3.05;;;2.67;;
31336;SDS011;22846;42.654;23.314;2023-08-07T05:28:17;3.20;;;2.30;;
31336;SDS011;22846;42.654;23.314;2023-08-07T05:30:43;3.95;;;2.47;;
31336;SDS011;22846;42.654;23.314;2023-08-07T05:33:08;3.78;;;2.42;;
31336;SDS011;22846;42.654;23.314;2023-08-07T05:35:33;6.07;;;2.30;;
31336;SDS011;22846;42.654;23.314;2023-08-07T05:37:59;5.88;;;2.20;;
31336;SDS011;22846;42.654;23.314;2023-08-07T05:40:24;7.57;;;3.08;;
31336;SDS011;22846;42.654;23.314;2023-08-07T05:42:49;6.13;;;2.80;;
31336;SDS011;22846;42.654;23.314;2023-08-07T05:45:15;5.53;;;2.85;;
31336;SDS011;22846;42.654;23.314;2023-08-07T05:47:40;4.45;;;2.47;;
31336;SDS011;22846;42.654;23.314;2023-08-07T05:50:06;9.68;;;3.10;;
31336;SDS011;22846;42.654;23.314;2023-08-07T05:52:32;10.32;;;3.42;;
31336;SDS011;22846;42.654;23.314;2023-08-07T05:54:57;5.35;;;2.72;;
31336;SDS011;22846;42.654;23.314;2023-08-07T05:57:22;4.70;;;2.67;;
31336;SDS011;22846;42.654;23.314;2023-08-07T05:59:48;9.32;;;2.72;;
31336;SDS011;22846;42.654;23.314;2023-08-07T06:02:13;4.63;;;2.75;;
31336;SDS011;22846;42.654;23.314;2023-08-07T06:04:38;3.97;;;2.17;;
31336;SDS011;22846;42.654;23.314;2023-08-07T06:07:05;5.38;;;2.47;;
31336;SDS011;22846;42.654;23.314;2023-08-07T06:09:32;5.63;;;2.50;;
31336;SDS011;22846;42.654;23.314;2023-08-07T06:11:57;6.20;;;2.58;;
31336;SDS011;22846;42.654;23.314;2023-08-07T06:14:22;9.15;;;2.70;;
31336;SDS011;22846;42.654;23.314;2023-08-07T06:16:50;4.95;;;2.92;;
31336;SDS011;22846;42.654;23.314;2023-08-07T06:19:16;8.05;;;2.88;;
31336;SDS011;22846;42.654;23.314;2023-08-07T06:21:41;7.07;;;3.15;;
31336;SDS011;22846;42.654;23.314;2023-08-07T06:24:06;4.25;;;2.40;;
31336;SDS011;22846;42.654;23.314;2023-08-07T06:26:32;4.00;;;2.58;;
31336;SDS011;22846;42.654;23.314;2023-08-07T06:28:57;5.20;;;2.60;;
31336;SDS011;22846;42.654;23.314;2023-08-07T06:31:22;4.53;;;2.28;;
31336;SDS011;22846;42.654;23.314;2023-08-07T06:33:49;2.60;;;2.05;;
31336;SDS011;22846;42.654;23.314;2023-08-07T06:36:14;3.28;;;2.20;;
31336;SDS011;22846;42.654;23.314;2023-08-07T06:38:40;3.30;;;2.15;;
31336;SDS011;22846;42.654;23.314;2023-08-07T06:41:05;4.40;;;2.25;;
31336;SDS011;22846;42.654;23.314;2023-08-07T06:43:30;2.85;;;2.00;;
31336;SDS011;22846;42.654;23.314;2023-08-07T06:45:56;3.75;;;2.33;;
31336;SDS011;22846;42.654;23.314;2023-08-07T06:48:22;4.25;;;2.30;;
31336;SDS011;22846;42.654;23.314;2023-08-07T06:50:48;4.72;;;2.20;;
31336;SDS011;22846;42.654;23.314;2023-08-07T06:53:14;3.78;;;1.90;;
31336;SDS011;22846;42.654;23.314;2023-08-07T06:55:43;3.33;;;2.15;;
31336;SDS011;22846;42.654;23.314;2023-08-07T06:58:09;4.65;;;2.63;;
31336;SDS011;22846;42.654;23.314;2023-08-07T07:00:35;3.20;;;2.10;;
31336;SDS011;22846;42.654;23.314;2023-08-07T07:03:02;2.72;;;2.35;;
31336;SDS011;22846;42.654;23.314;2023-08-07T07:05:28;2.42;;;2.20;;
31336;SDS011;22846;42.654;23.314;2023-08-07T07:07:53;2.78;;;2.28;;
31336;SDS011;22846;42.654;23.314;2023-08-07T07:10:22;3.47;;;2.25;;
31336;SDS011;22846;42.654;23.314;2023-08-07T07:12:47;2.70;;;1.63;;
31336;SDS011;22846;42.654;23.314;2023-08-07T07:15:13;2.20;;;2.00;;
31336;SDS011;22846;42.654;23.314;2023-08-07T07:17:38;2.72;;;1.85;;
31336;SDS011;22846;42.654;23.314;2023-08-07T07:20:04;2.83;;;1.83;;
31336;SDS011;22846;42.654;23.314;2023-08-07T07:22:30;2.35;;;1.73;;
31336;SDS011;22846;42.654;23.314;2023-08-07T07:24:55;4.50;;;2.15;;
31336;SDS011;22846;42.654;23.314;2023-08-07T07:27:21;1.80;;;1.60;;
31336;SDS011;22846;42.654;23.314;2023-08-07T07:29:47;2.25;;;2.03;;
31336;SDS011;22846;42.654;23.314;2023-08-07T07:32:13;3.08;;;1.75;;
31336;SDS011;22846;42.654;23.314;2023-08-07T07:34:38;2.28;;;1.73;;
31336;SDS011;22846;42.654;23.314;2023-08-07T07:37:04;1.92;;;1.50;;
31336;SDS011;22846;42.654;23.314;2023-08-07T07:39:29;2.05;;;1.85;;
31336;SDS011;22846;42.654;23.314;2023-08-07T07:41:55;3.25;;;1.77;;
31336;SDS011;22846;42.654;23.314;2023-08-07T07:44:20;1.90;;;1.67;;
31336;SDS011;22846;42.654;23.314;2023-08-07T07:46:46;2.08;;;1.67;;
31336;SDS011;22846;42.654;23.314;2023-08-07T07:49:11;1.83;;;1.58;;
31336;SDS011;22846;42.654;23.314;2023-08-07T07:51:36;2.03;;;1.80;;
31336;SDS011;22846;42.654;23.314;2023-08-07T07:54:02;2.22;;;1.88;;
31336;SDS011;22846;42.654;23.314;2023-08-07T07:56:28;3.03;;;1.77;;
31336;SDS011;22846;42.654;23.314;2023-08-07T07:58:53;2.30;;;1.70;;
31336;SDS011;22846;42.654;23.314;2023-08-07T08:01:18;3.25;;;1.80;;
31336;SDS011;22846;42.654;23.314;2023-08-07T08:03:44;2.72;;;1.85;;
31336;SDS011;22846;42.654;23.314;2023-08-07T08:06:12;1.60;;;1.50;;
31336;SDS011;22846;42.654;23.314;2023-08-07T08:08:38;1.92;;;1.60;;
31336;SDS011;22846;42.654;23.314;2023-08-07T08:11:04;2.45;;;1.70;;
31336;SDS011;22846;42.654;23.314;2023-08-07T08:13:29;3.17;;;1.60;;
31336;SDS011;22846;42.654;23.314;2023-08-07T08:15:54;1.65;;;1.55;;
31336;SDS011;22846;42.654;23.314;2023-08-07T08:18:20;2.90;;;1.70;;
31336;SDS011;22846;42.654;23.314;2023-08-07T08:20:45;2.17;;;1.80;;
31336;SDS011;22846;42.654;23.314;2023-08-07T08:23:10;2.03;;;1.50;;
31336;SDS011;22846;42.654;23.314;2023-08-07T08:25:36;1.80;;;1.50;;
31336;SDS011;22846;42.654;23.314;2023-08-07T08:28:01;2.35;;;1.38;;
31336;SDS011;22846;42.654;23.314;2023-08-07T08:30:27;2.20;;;1.50;;
31336;SDS011;22846;42.654;23.314;2023-08-07T08:32:54;1.90;;;1.65;;
31336;SDS011;22846;42.654;23.314;2023-08-07T08:35:20;3.40;;;1.92;;
31336;SDS011;22846;42.654;23.314;2023-08-07T08:37:45;2.30;;;1.58;;
31336;SDS011;22846;42.654;23.314;2023-08-07T08:40:11;1.90;;;1.70;;
31336;SDS011;22846;42.654;23.314;2023-08-07T08:42:44;2.47;;;1.50;;
31336;SDS011;22846;42.654;23.314;2023-08-07T08:45:10;2.75;;;1.40;;
31336;SDS011;22846;42.654;23.314;2023-08-07T08:47:38;2.22;;;1.75;;
31336;SDS011;22846;42.654;23.314;2023-08-07T08:50:06;3.38;;;1.63;;
31336;SDS011;22846;42.654;23.314;2023-08-07T08:52:34;2.10;;;1.38;;
31336;SDS011;22846;42.654;23.314;2023-08-07T08:55:02;1.75;;;1.50;;
31336;SDS011;22846;42.654;23.314;2023-08-07T08:57:28;1.75;;;1.50;;
31336;SDS011;22846;42.654;23.314;2023-08-07T08:59:55;2.35;;;1.55;;
31336;SDS011;22846;42.654;23.314;2023-08-07T09:02:22;5.40;;;1.50;;
31336;SDS011;22846;42.654;23.314;2023-08-07T09:04:47;3.67;;;1.50;;
31336;SDS011;22846;42.654;23.314;2023-08-07T09:07:13;4.03;;;1.63;;
31336;SDS011;22846;42.654;23.314;2023-08-07T09:09:40;4.20;;;1.77;;
31336;SDS011;22846;42.654;23.314;2023-08-07T09:12:08;6.15;;;1.60;;
31336;SDS011;22846;42.654;23.314;2023-08-07T09:14:41;6.68;;;1.77;;
31336;SDS011;22846;42.654;23.314;2023-08-07T09:17:09;1.80;;;1.30;;
31336;SDS011;22846;42.654;23.314;2023-08-07T09:19:37;2.72;;;1.63;;
31336;SDS011;22846;42.654;23.314;2023-08-07T09:22:03;4.93;;;1.60;;
31336;SDS011;22846;42.654;23.314;2023-08-07T09:24:29;2.38;;;1.60;;
31336;SDS011;22846;42.654;23.314;2023-08-07T09:26:54;3.97;;;1.90;;
31336;SDS011;22846;42.654;23.314;2023-08-07T09:29:20;5.60;;;1.83;;
31336;SDS011;22846;42.654;23.314;2023-08-07T09:31:47;3.90;;;1.83;;
31336;SDS011;22846;42.654;23.314;2023-08-07T09:34:12;3.97;;;1.70;;
31336;SDS011;22846;42.654;23.314;2023-08-07T09:36:41;3.42;;;1.67;;
31336;SDS011;22846;42.654;23.314;2023-08-07T09:39:07;2.70;;;1.63;;
31336;SDS011;22846;42.654;23.314;2023-08-07T09:41:32;4.43;;;1.75;;
31336;SDS011;22846;42.654;23.314;2023-08-07T09:44:00;1.98;;;1.38;;
31336;SDS011;22846;42.654;23.314;2023-08-07T09:46:32;3.03;;;1.20;;
31336;SDS011;22846;42.654;23.314;2023-08-07T09:49:06;4.20;;;1.65;;
31336;SDS011;22846;42.654;23.314;2023-08-07T09:51:40;2.25;;;1.42;;
31336;SDS011;22846;42.654;23.314;2023-08-07T09:54:07;2.78;;;1.60;;
31336;SDS011;22846;42.654;23.314;2023-08-07T09:56:32;3.65;;;1.42;;
31336;SDS011;22846;42.654;23.314;2023-08-07T09:58:57;2.55;;;1.50;;
31336;SDS011;22846;42.654;23.314;2023-08-07T10:01:23;1.98;;;1.42;;
31336;SDS011;22846;42.654;23.314;2023-08-07T10:03:50;5.40;;;1.73;;
31336;SDS011;22846;42.654;23.314;2023-08-07T10:06:17;2.50;;;1.55;;
31336;SDS011;22846;42.654;23.314;2023-08-07T10:08:44;2.83;;;1.70;;
31336;SDS011;22846;42.654;23.314;2023-08-07T10:11:10;4.40;;;1.60;;
31336;SDS011;22846;42.654;23.314;2023-08-07T10:13:37;2.75;;;1.80;;
31336;SDS011;22846;42.654;23.314;2023-08-07T10:16:03;3.75;;;1.55;;
31336;SDS011;22846;42.654;23.314;2023-08-07T10:18:29;2.53;;;1.67;;
31336;SDS011;22846;42.654;23.314;2023-08-07T10:20:54;1.77;;;1.38;;
31336;SDS011;22846;42.654;23.314;2023-08-07T10:23:22;2.70;;;1.60;;
31336;SDS011;22846;42.654;23.314;2023-08-07T10:25:48;2.38;;;1.30;;
31336;SDS011;22846;42.654;23.314;2023-08-07T10:28:16;2.28;;;1.60;;
31336;SDS011;22846;42.654;23.314;2023-08-07T10:30:43;2.63;;;1.60;;
31336;SDS011;22846;42.654;23.314;2023-08-07T10:33:09;2.35;;;1.60;;
31336;SDS011;22846;42.654;23.314;2023-08-07T10:35:36;2.30;;;1.52;;
31336;SDS011;22846;42.654;23.314;2023-08-07T10:38:06;2.70;;;1.55;;
31336;SDS011;22846;42.654;23.314;2023-08-07T10:40:33;1.63;;;1.50;;
31336;SDS011;22846;42.654;23.314;2023-08-07T10:43:12;2.60;;;1.60;;
31336;SDS011;22846;42.654;23.314;2023-08-07T10:45:41;1.85;;;1.35;;
31336;SDS011;22846;42.654;23.314;2023-08-07T10:48:07;2.53;;;1.15;;
31336;SDS011;22846;42.654;23.314;2023-08-07T10:50:50;2.72;;;1.40;;
31336;SDS011;22846;42.654;23.314;2023-08-07T10:53:41;1.92;;;1.50;;
31336;SDS011;22846;42.654;23.314;2023-08-07T10:56:15;2.38;;;1.55;;
31336;SDS011;22846;42.654;23.314;2023-08-07T10:58:40;1.80;;;1.27;;
31336;SDS011;22846;42.654;23.314;2023-08-07T11:01:16;3.85;;;1.50;;
31336;SDS011;22846;42.654;23.314;2023-08-07T11:03:44;4.40;;;1.83;;
31336;SDS011;22846;42.654;23.314;2023-08-07T11:06:10;3.33;;;1.15;;
31336;SDS011;22846;42.654;23.314;2023-08-07T11:08:36;2.08;;;1.40;;
31336;SDS011;22846;42.654;23.314;2023-08-07T11:11:05;1.65;;;1.40;;
31336;SDS011;22846;42.654;23.314;2023-08-07T11:13:32;1.58;;;1.20;;
31336;SDS011;22846;42.654;23.314;2023-08-07T11:15:58;2.63;;;1.30;;
31336;SDS011;22846;42.654;23.314;2023-08-07T11:18:25;2.13;;;1.40;;
31336;SDS011;22846;42.654;23.314;2023-08-07T11:20:51;3.15;;;1.50;;
31336;SDS011;22846;42.654;23.314;2023-08-07T11:23:22;3.95;;;1.33;;
31336;SDS011;22846;42.654;23.314;2023-08-07T11:25:54;2.08;;;1.45;;
31336;SDS011;22846;42.654;23.314;2023-08-07T11:28:20;1.40;;;1.30;;
31336;SDS011;22846;42.654;23.314;2023-08-07T11:30:50;4.13;;;1.50;;
31336;SDS011;22846;42.654;23.314;2023-08-07T11:33:18;2.67;;;1.52;;
31336;SDS011;22846;42.654;23.314;2023-08-07T11:35:44;2.15;;;1.20;;
31336;SDS011;22846;42.654;23.314;2023-08-07T11:38:10;1.55;;;1.30;;
31336;SDS011;22846;42.654;23.314;2023-08-07T11:40:37;2.15;;;1.42;;
31336;SDS011;22846;42.654;23.314;2023-08-07T11:43:02;1.50;;;1.40;;
31336;SDS011;22846;42.654;23.314;2023-08-07T11:45:28;2.55;;;1.23;;
31336;SDS011;22846;42.654;23.314;2023-08-07T11:47:54;1.23;;;1.00;;
31336;SDS011;22846;42.654;23.314;2023-08-07T11:50:24;2.55;;;1.17;;
31336;SDS011;22846;42.654;23.314;2023-08-07T11:52:52;1.50;;;1.20;;
31336;SDS011;22846;42.654;23.314;2023-08-07T11:55:18;3.20;;;1.20;;
31336;SDS011;22846;42.654;23.314;2023-08-07T11:57:46;1.30;;;1.20;;
31336;SDS011;22846;42.654;23.314;2023-08-07T12:00:12;2.10;;;1.30;;
31336;SDS011;22846;42.654;23.314;2023-08-07T12:02:43;2.08;;;1.27;;
31336;SDS011;22846;42.654;23.314;2023-08-07T12:05:10;1.85;;;1.40;;
31336;SDS011;22846;42.654;23.314;2023-08-07T12:07:36;1.50;;;1.23;;
31336;SDS011;22846;42.654;23.314;2023-08-07T12:10:03;1.77;;;1.45;;
31336;SDS011;22846;42.654;23.314;2023-08-07T12:12:35;4.18;;;1.50;;
31336;SDS011;22846;42.654;23.314;2023-08-07T12:15:02;1.98;;;1.30;;
31336;SDS011;22846;42.654;23.314;2023-08-07T12:17:31;1.33;;;1.20;;
31336;SDS011;22846;42.654;23.314;2023-08-07T12:19:57;2.10;;;1.38;;
31336;SDS011;22846;42.654;23.314;2023-08-07T12:22:23;2.42;;;1.30;;
31336;SDS011;22846;42.654;23.314;2023-08-07T12:24:48;1.15;;;1.05;;
31336;SDS011;22846;42.654;23.314;2023-08-07T12:27:14;3.40;;;1.13;;
31336;SDS011;22846;42.654;23.314;2023-08-07T12:29:39;1.90;;;1.55;;
31336;SDS011;22846;42.654;23.314;2023-08-07T12:32:04;2.33;;;1.27;;
31336;SDS011;22846;42.654;23.314;2023-08-07T12:34:30;1.35;;;1.20;;
31336;SDS011;22846;42.654;23.314;2023-08-07T12:36:56;1.20;;;1.08;;
31336;SDS011;22846;42.654;23.314;2023-08-07T12:39:21;1.83;;;1.10;;
31336;SDS011;22846;42.654;23.314;2023-08-07T12:41:46;1.50;;;1.17;;
31336;SDS011;22846;42.654;23.314;2023-08-07T12:44:13;1.58;;;1.35;;
31336;SDS011;22846;42.654;23.314;2023-08-07T12:46:39;1.75;;;1.40;;
31336;SDS011;22846;42.654;23.314;2023-08-07T12:49:05;2.78;;;1.40;;
31336;SDS011;22846;42.654;23.314;2023-08-07T12:51:33;2.40;;;1.20;;
31336;SDS011;22846;42.654;23.314;2023-08-07T12:53:59;1.80;;;1.38;;
31336;SDS011;22846;42.654;23.314;2023-08-07T12:56:24;1.20;;;0.90;;
31336;SDS011;22846;42.654;23.314;2023-08-07T12:58:50;1.52;;;1.30;;
31336;SDS011;22846;42.654;23.314;2023-08-07T13:01:15;1.85;;;1.40;;
31336;SDS011;22846;42.654;23.314;2023-08-07T13:03:41;1.20;;;1.00;;
31336;SDS011;22846;42.654;23.314;2023-08-07T13:06:06;1.30;;;1.13;;
31336;SDS011;22846;42.654;23.314;2023-08-07T13:08:33;1.55;;;1.10;;
31336;SDS011;22846;42.654;23.314;2023-08-07T13:11:00;1.50;;;1.10;;
31336;SDS011;22846;42.654;23.314;2023-08-07T13:13:26;1.80;;;1.33;;
31336;SDS011;22846;42.654;23.314;2023-08-07T13:15:53;1.58;;;1.23;;
31336;SDS011;22846;42.654;23.314;2023-08-07T13:18:18;1.88;;;1.20;;
31336;SDS011;22846;42.654;23.314;2023-08-07T13:20:44;2.08;;;1.10;;
31336;SDS011;22846;42.654;23.314;2023-08-07T13:23:10;1.42;;;1.13;;
31336;SDS011;22846;42.654;23.314;2023-08-07T13:25:36;1.33;;;0.98;;
31336;SDS011;22846;42.654;23.314;2023-08-07T13:28:02;1.20;;;1.10;;
31336;SDS011;22846;42.654;23.314;2023-08-07T13:30:31;1.55;;;1.10;;
31336;SDS011;22846;42.654;23.314;2023-08-07T13:33:00;1.20;;;1.10;;
31336;SDS011;22846;42.654;23.314;2023-08-07T13:35:25;2.78;;;1.40;;
31336;SDS011;22846;42.654;23.314;2023-08-07T13:37:51;1.88;;;1.10;;
31336;SDS011;22846;42.654;23.314;2023-08-07T13:40:17;2.83;;;1.30;;
31336;SDS011;22846;42.654;23.314;2023-08-07T13:42:43;1.10;;;1.00;;
31336;SDS011;22846;42.654;23.314;2023-08-07T13:45:09;1.20;;;1.10;;
31336;SDS011;22846;42.654;23.314;2023-08-07T13:47:35;1.50;;;1.02;;
31336;SDS011;22846;42.654;23.314;2023-08-07T13:50:00;3.42;;;1.15;;
31336;SDS011;22846;42.654;23.314;2023-08-07T13:52:27;3.85;;;1.40;;
31336;SDS011;22846;42.654;23.314;2023-08-07T13:54:52;4.20;;;1.40;;
31336;SDS011;22846;42.654;23.314;2023-08-07T13:57:17;6.00;;;1.35;;
31336;SDS011;22846;42.654;23.314;2023-08-07T13:59:43;1.85;;;1.30;;
31336;SDS011;22846;42.654;23.314;2023-08-07T14:02:08;3.88;;;1.60;;
31336;SDS011;22846;42.654;23.314;2023-08-07T14:04:34;1.63;;;1.40;;
31336;SDS011;22846;42.654;23.314;2023-08-07T14:06:59;3.10;;;1.42;;
31336;SDS011;22846;42.654;23.314;2023-08-07T14:09:25;3.08;;;1.50;;
31336;SDS011;22846;42.654;23.314;2023-08-07T14:11:50;1.77;;;1.38;;
31336;SDS011;22846;42.654;23.314;2023-08-07T14:14:16;1.73;;;1.40;;
31336;SDS011;22846;42.654;23.314;2023-08-07T14:16:41;3.45;;;1.40;;
31336;SDS011;22846;42.654;23.314;2023-08-07T14:19:07;3.35;;;1.40;;
31336;SDS011;22846;42.654;23.314;2023-08-07T14:21:33;2.22;;;1.40;;
31336;SDS011;22846;42.654;23.314;2023-08-07T14:23:58;4.40;;;1.40;;
31336;SDS011;22846;42.654;23.314;2023-08-07T14:26:24;2.10;;;1.58;;
31336;SDS011;22846;42.654;23.314;2023-08-07T14:28:49;2.25;;;1.70;;
31336;SDS011;22846;42.654;23.314;2023-08-07T14:31:15;4.47;;;1.65;;